Time;durP1;ratioP1;P1;durP2;ratioP2;P2;SDS_P1;SDS_P2;PMS_P1;PMS_P2;Temp;Humidity;BMP_temperature;BMP_pressure;BME280_temperature;BME280_humidity;BME280_pressure;Samples;Min_cycle;Max_cycle;Signal;HPM_P1;HPM_P2
2021/03/24 00:01:56;;;;;;;2.00;1.70;;;21.90;49.20;;;;;;4991801;28;20823;-68
2021/03/24 00:04:22;;;;;;;1.73;1.57;;;21.80;49.10;;;;;;4993316;28;20170;-68
2021/03/24 00:06:48;;;;;;;1.63;1.50;;;21.80;49.10;;;;;;4993012;28;20181;-68
2021/03/24 00:09:17;;;;;;;2.40;2.10;;;21.80;49.10;;;;;;4995594;28;20247;-68
2021/03/24 00:11:44;;;;;;;1.70;1.60;;;21.90;49.50;;;;;;4996647;28;20177;-68
2021/03/24 00:14:09;;;;;;;3.00;1.90;;;21.80;49.20;;;;;;4995132;28;20774;-68
2021/03/24 00:16:35;;;;;;;2.33;1.93;;;21.80;49.20;;;;;;4996370;28;20574;-68
2021/03/24 00:19:00;;;;;;;2.50;2.03;;;21.80;49.20;;;;;;4996426;28;20248;-68
2021/03/24 00:21:26;;;;;;;1.70;1.50;;;21.80;49.20;;;;;;5011616;28;20684;-68
2021/03/24 00:23:52;;;;;;;2.23;1.87;;;21.80;49.70;;;;;;4996256;28;20247;-68
2021/03/24 00:26:17;;;;;;;2.13;1.77;;;21.80;49.20;;;;;;4995091;28;20173;-66
2021/03/24 00:28:43;;;;;;;2.10;1.73;;;21.80;49.20;;;;;;4996222;28;20663;-68
2021/03/24 00:31:09;;;;;;;2.00;1.77;;;21.80;49.20;;;;;;4997520;28;20189;-67
2021/03/24 00:33:34;;;;;;;2.00;1.80;;;21.80;49.20;;;;;;4994980;28;20207;-68
2021/03/24 00:36:01;;;;;;;1.70;1.60;;;21.70;49.10;;;;;;4996013;28;20455;-68
2021/03/24 00:38:27;;;;;;;2.13;1.70;;;21.70;49.20;;;;;;4995999;28;20169;-67
2021/03/24 00:40:57;;;;;;;2.17;1.70;;;21.70;49.10;;;;;;4996264;28;20404;-67
2021/03/24 00:43:24;;;;;;;2.10;1.77;;;21.80;49.20;;;;;;4996126;28;20196;-68
2021/03/24 00:45:50;;;;;;;2.50;2.20;;;21.70;49.20;;;;;;5011467;28;20424;-68
2021/03/24 00:48:20;;;;;;;2.33;2.00;;;21.70;49.70;;;;;;4994628;28;20775;-68
2021/03/24 00:50:46;;;;;;;2.20;2.00;;;21.70;49.20;;;;;;4993665;28;20211;-68
2021/03/24 00:53:12;;;;;;;1.90;1.80;;;21.70;49.20;;;;;;4994490;28;20817;-68
2021/03/24 00:55:38;;;;;;;1.73;1.37;;;21.70;49.20;;;;;;4994750;28;20466;-68
2021/03/24 00:58:03;;;;;;;1.83;1.43;;;21.70;49.20;;;;;;4994232;28;20436;-67
2021/03/24 01:00:32;;;;;;;1.90;1.70;;;21.70;49.20;;;;;;4995176;28;20641;-68
2021/03/24 01:02:58;;;;;;;1.90;1.73;;;21.70;49.20;;;;;;4995507;28;20187;-68
2021/03/24 01:05:25;;;;;;;2.67;2.00;;;21.70;49.20;;;;;;4994039;28;20515;-68
2021/03/24 01:07:52;;;;;;;2.50;1.90;;;21.70;49.20;;;;;;4995547;28;20185;-68
2021/03/24 01:10:25;;;;;;;2.50;1.83;;;21.70;49.20;;;;;;4995445;28;20412;-67
2021/03/24 01:12:51;;;;;;;1.60;1.40;;;21.70;49.20;;;;;;4995402;28;21038;-68
2021/03/24 01:15:17;;;;;;;1.90;1.60;;;21.70;49.30;;;;;;4995300;28;20547;-67
2021/03/24 01:17:43;;;;;;;1.80;1.67;;;21.70;49.20;;;;;;4995212;28;20451;-68
2021/03/24 01:20:10;;;;;;;1.87;1.67;;;21.60;49.20;;;;;;4995101;28;20471;-68
2021/03/24 01:22:35;;;;;;;2.17;1.93;;;21.70;49.20;;;;;;4995203;28;20232;-68
2021/03/24 01:25:01;;;;;;;2.17;1.40;;;21.70;49.30;;;;;;4995244;28;20450;-67
2021/03/24 01:27:27;;;;;;;1.87;1.77;;;21.70;49.30;;;;;;4994973;28;20177;-68
2021/03/24 01:29:52;;;;;;;2.43;1.70;;;21.60;49.20;;;;;;4995120;28;20188;-68
2021/03/24 01:32:18;;;;;;;4.17;2.07;;;21.60;49.30;;;;;;4994992;28;20197;-67
2021/03/24 01:34:44;;;;;;;2.77;2.17;;;21.60;49.30;;;;;;4995000;28;20184;-66
2021/03/24 01:37:10;;;;;;;2.10;1.70;;;21.60;49.40;;;;;;4994965;28;20177;-67
2021/03/24 01:39:35;;;;;;;2.37;1.80;;;21.60;49.50;;;;;;4994783;28;20188;-67
2021/03/24 01:42:01;;;;;;;1.70;1.50;;;21.50;49.40;;;;;;4994771;28;20675;-68
2021/03/24 01:44:27;;;;;;;2.10;1.70;;;21.50;49.40;;;;;;4994871;28;20697;-67
2021/03/24 01:46:52;;;;;;;2.90;2.03;;;21.50;50.00;;;;;;4994823;28;20177;-67
2021/03/24 01:49:26;;;;;;;2.77;2.30;;;21.50;49.50;;;;;;4994607;28;20196;-67
2021/03/24 01:52:02;;;;;;;1.50;1.30;;;21.50;49.50;;;;;;4993378;28;20173;-67
2021/03/24 01:54:40;;;;;;;2.23;2.03;;;21.50;49.50;;;;;;4994368;28;20439;-68
2021/03/24 01:57:16;;;;;;;3.40;2.20;;;21.50;49.60;;;;;;4994476;28;20907;-68
2021/03/24 01:59:42;;;;;;;2.93;1.93;;;21.40;49.50;;;;;;4994597;28;20468;-67
2021/03/24 02:02:30;;;;;;;2.07;1.70;;;21.40;50.10;;;;;;4994421;28;20502;-67
2021/03/24 02:04:55;;;;;;;2.17;1.83;;;21.50;49.60;;;;;;4994373;28;20180;-67
2021/03/24 02:07:39;;;;;;;2.00;1.70;;;21.40;49.60;;;;;;4994437;28;20404;-66
2021/03/24 02:10:27;;;;;;;2.07;1.40;;;21.40;49.60;;;;;;4994480;28;20561;-68
2021/03/24 02:13:05;;;;;;;1.60;1.50;;;21.40;49.60;;;;;;4992884;28;20436;-67
2021/03/24 02:15:41;;;;;;;2.40;1.97;;;21.40;49.70;;;;;;5009378;28;20532;-68
2021/03/24 02:18:09;;;;;;;2.43;2.23;;;21.40;49.70;;;;;;4994220;28;20915;-68
2021/03/24 02:20:58;;;;;;;2.00;1.80;;;21.40;49.70;;;;;;4994155;28;20440;-68
2021/03/24 02:23:40;;;;;;;2.00;1.43;;;21.40;49.60;;;;;;4994123;28;20428;-67
2021/03/24 02:26:44;;;;;;;1.83;1.70;;;21.40;49.70;;;;;;4994120;28;20468;-68
2021/03/24 02:29:15;;;;;;;2.63;2.10;;;21.40;49.60;;;;;;4983256;28;20419;-68
2021/03/24 02:31:41;;;;;;;2.80;1.77;;;21.30;49.60;;;;;;4993426;28;20451;-67
2021/03/24 02:34:12;;;;;;;2.00;1.80;;;21.40;49.70;;;;;;4994489;28;20420;-67
2021/03/24 02:36:39;;;;;;;1.87;1.73;;;21.30;49.60;;;;;;4992903;28;20483;-67
2021/03/24 02:39:08;;;;;;;2.50;1.80;;;21.30;49.60;;;;;;4994158;28;20949;-68
2021/03/24 02:41:36;;;;;;;2.10;1.90;;;21.40;49.70;;;;;;4993788;28;20407;-68
2021/03/24 02:44:02;;;;;;;1.93;1.77;;;21.40;49.70;;;;;;4993910;28;20419;-68
2021/03/24 02:46:28;;;;;;;5.03;1.87;;;21.40;49.70;;;;;;4994064;28;20924;-68
2021/03/24 02:48:56;;;;;;;2.47;1.73;;;21.40;49.80;;;;;;4993736;28;20444;-68
2021/03/24 02:51:24;;;;;;;2.20;1.70;;;21.40;49.70;;;;;;4993789;28;20415;-68
2021/03/24 02:53:51;;;;;;;2.17;1.97;;;21.30;49.70;;;;;;4993551;28;20439;-67
2021/03/24 02:56:17;;;;;;;2.43;1.53;;;21.40;49.70;;;;;;4993601;28;20614;-68
2021/03/24 02:58:43;;;;;;;3.53;2.10;;;21.40;49.70;;;;;;4993677;28;20499;-67
2021/03/24 03:01:22;;;;;;;2.80;2.13;;;21.40;49.70;;;;;;4994274;28;20508;-67
2021/03/24 03:03:56;;;;;;;1.73;1.63;;;21.40;49.70;;;;;;4993638;28;20694;-68
2021/03/24 03:06:26;;;;;;;2.07;1.60;;;21.40;49.70;;;;;;4992268;28;20444;-67
2021/03/24 03:08:56;;;;;;;2.40;2.20;;;21.40;49.80;;;;;;4993531;28;20973;-68
2021/03/24 03:11:40;;;;;;;2.60;1.90;;;21.40;49.80;;;;;;4992949;28;20416;-67
2021/03/24 03:14:21;;;;;;;3.43;1.77;;;21.40;49.80;;;;;;5008629;28;20495;-68
2021/03/24 03:16:53;;;;;;;2.10;1.90;;;21.30;49.70;;;;;;4991790;28;20470;-68
2021/03/24 03:19:29;;;;;;;2.80;2.30;;;21.30;49.80;;;;;;4993129;28;20416;-68
2021/03/24 03:22:02;;;;;;;3.00;2.33;;;21.30;50.40;;;;;;4993480;28;20439;-67
2021/03/24 03:24:37;;;;;;;2.20;2.00;;;21.30;49.80;;;;;;4991748;28;20523;-68
2021/03/24 03:27:04;;;;;;;2.43;2.20;;;21.30;49.80;;;;;;4972767;28;20424;-68
2021/03/24 03:29:31;;;;;;;2.47;2.20;;;21.30;49.80;;;;;;4980766;28;20416;-66
2021/03/24 03:31:58;;;;;;;2.27;1.90;;;21.30;49.70;;;;;;4993266;28;20466;-68
2021/03/24 03:34:25;;;;;;;2.63;2.30;;;21.30;49.80;;;;;;4993360;28;20455;-67
2021/03/24 03:36:54;;;;;;;2.73;2.27;;;21.30;49.70;;;;;;4993521;28;20456;-67
2021/03/24 03:39:23;;;;;;;3.47;2.67;;;21.30;49.70;;;;;;4993315;28;20434;-67
2021/03/24 03:41:49;;;;;;;2.87;2.30;;;21.30;49.70;;;;;;4993147;28;20496;-67
2021/03/24 03:44:16;;;;;;;2.97;2.47;;;21.30;49.70;;;;;;4996315;28;20420;-67
2021/03/24 03:47:08;;;;;;;2.80;2.20;;;21.30;49.70;;;;;;4995779;28;20420;-67
2021/03/24 03:49:36;;;;;;;3.10;2.67;;;21.30;49.70;;;;;;4997034;28;21012;-67
2021/03/24 03:52:16;;;;;;;2.40;2.13;;;21.30;49.80;;;;;;4996869;28;20435;-67
2021/03/24 03:54:57;;;;;;;2.70;2.10;;;21.30;49.80;;;;;;4996682;28;20400;-67
2021/03/24 03:57:49;;;;;;;3.07;1.87;;;21.30;49.80;;;;;;4995647;28;20401;-67
2021/03/24 04:00:24;;;;;;;2.60;2.20;;;21.30;49.80;;;;;;4996886;28;20765;-67
2021/03/24 04:03:07;;;;;;;3.20;2.90;;;21.20;49.70;;;;;;4996695;28;20854;-68
2021/03/24 04:05:42;;;;;;;2.70;2.50;;;21.20;49.70;;;;;;4996645;28;20422;-67
2021/03/24 04:08:14;;;;;;;3.10;2.67;;;21.30;49.80;;;;;;4996950;28;20424;-66
2021/03/24 04:10:48;;;;;;;2.87;2.60;;;21.20;49.70;;;;;;4996582;28;20453;-67
2021/03/24 04:13:15;;;;;;;2.37;2.17;;;21.20;49.70;;;;;;4996304;28;20443;-67
2021/03/24 04:15:40;;;;;;;3.27;2.97;;;21.20;49.70;;;;;;4996383;28;20456;-67
2021/03/24 04:18:11;;;;;;;2.83;2.53;;;21.20;49.70;;;;;;4995042;28;20442;-67
2021/03/24 04:20:39;;;;;;;2.80;2.40;;;21.20;49.70;;;;;;4995430;28;20177;-67
2021/03/24 04:23:08;;;;;;;4.20;3.00;;;21.20;49.70;;;;;;4994500;28;20459;-67
2021/03/24 04:25:40;;;;;;;3.23;2.93;;;21.20;49.70;;;;;;4996350;28;20412;-67
2021/03/24 04:28:09;;;;;;;2.87;2.50;;;21.20;49.70;;;;;;4995625;28;20526;-67
2021/03/24 04:30:42;;;;;;;2.60;2.40;;;21.20;49.80;;;;;;4996152;28;20490;-67
2021/03/24 04:33:11;;;;;;;3.20;2.90;;;21.20;49.80;;;;;;4994598;28;20459;-67
2021/03/24 04:35:38;;;;;;;3.17;2.87;;;21.20;49.70;;;;;;4996049;28;20483;-67
2021/03/24 04:38:15;;;;;;;2.70;2.50;;;21.20;49.70;;;;;;4995440;28;20923;-67
2021/03/24 04:40:48;;;;;;;3.07;2.60;;;21.20;49.70;;;;;;4996267;28;20808;-66
2021/03/24 04:43:23;;;;;;;3.30;2.77;;;21.20;49.70;;;;;;4995224;28;20509;-67
2021/03/24 04:45:52;;;;;;;2.80;2.53;;;21.20;49.70;;;;;;4996188;28;20392;-67
2021/03/24 04:48:40;;;;;;;3.50;3.20;;;21.20;49.70;;;;;;4995353;28;20436;-67
2021/03/24 04:51:29;;;;;;;3.33;2.90;;;21.20;49.80;;;;;;4995933;28;20455;-67
2021/03/24 04:54:12;;;;;;;3.50;2.50;;;21.10;49.70;;;;;;4994171;28;20464;-67
2021/03/24 04:56:40;;;;;;;3.27;2.97;;;21.20;49.80;;;;;;4995987;28;20452;-67
2021/03/24 04:59:09;;;;;;;4.23;2.67;;;21.10;49.70;;;;;;4994862;28;20432;-66
2021/03/24 05:01:55;;;;;;;2.73;2.53;;;21.10;49.80;;;;;;4995761;28;20840;-67
2021/03/24 05:04:33;;;;;;;3.53;2.80;;;21.10;49.80;;;;;;4994784;28;20458;-66
2021/03/24 05:07:29;;;;;;;2.93;2.63;;;21.10;49.80;;;;;;4995548;28;20417;-67
2021/03/24 05:09:55;;;;;;;2.90;2.53;;;21.10;49.70;;;;;;4995610;28;20902;-66
2021/03/24 05:12:28;;;;;;;3.17;2.87;;;21.10;49.80;;;;;;4995368;28;20464;-66
2021/03/24 05:15:02;;;;;;;5.43;3.70;;;21.10;49.80;;;;;;4995619;28;20511;-67
2021/03/24 05:17:29;;;;;;;3.20;2.90;;;21.10;49.80;;;;;;4995410;28;20385;-67
2021/03/24 05:20:25;;;;;;;3.63;3.03;;;21.00;49.70;;;;;;4995190;28;20424;-65
2021/03/24 05:22:51;;;;;;;3.20;2.83;;;21.10;49.80;;;;;;4994088;28;20816;-67
2021/03/24 05:25:41;;;;;;;3.27;2.97;;;21.00;49.80;;;;;;4994233;28;20428;-67
2021/03/24 05:28:06;;;;;;;3.00;2.70;;;21.00;49.80;;;;;;4994045;28;20432;-67
2021/03/24 05:30:37;;;;;;;3.03;2.83;;;21.00;49.80;;;;;;4993883;28;20425;-67
2021/03/24 05:33:12;;;;;;;2.40;2.20;;;21.00;49.80;;;;;;4995014;28;20244;-66
2021/03/24 05:35:56;;;;;;;3.57;3.27;;;21.00;49.80;;;;;;4995247;28;20451;-66
2021/03/24 05:38:25;;;;;;;3.00;2.70;;;21.00;49.80;;;;;;4994940;28;20416;-67
2021/03/24 05:41:09;;;;;;;2.90;2.40;;;21.00;49.80;;;;;;4995016;28;20974;-67
2021/03/24 05:43:48;;;;;;;3.20;2.90;;;21.10;49.80;;;;;;4995185;28;20793;-68
2021/03/24 05:46:26;;;;;;;3.77;3.47;;;21.00;49.70;;;;;;4994900;28;20396;-67
2021/03/24 05:49:18;;;;;;;4.27;3.53;;;21.10;49.80;;;;;;4994995;28;20451;-67
2021/03/24 05:51:54;;;;;;;3.93;3.30;;;21.10;49.60;;;;;;5009725;28;20466;-67
2021/03/24 05:54:53;;;;;;;3.40;3.10;;;21.10;49.60;;;;;;4994541;28;20426;-67
2021/03/24 05:57:41;;;;;;;4.90;3.47;;;21.10;49.60;;;;;;4993381;28;20440;-67
2021/03/24 06:00:19;;;;;;;4.60;3.60;;;21.10;49.60;;;;;;4975195;28;20389;-65
2021/03/24 06:03:02;;;;;;;4.00;3.70;;;21.10;49.40;;;;;;4975081;28;20436;-67
2021/03/24 06:05:46;;;;;;;3.50;3.20;;;21.20;49.40;;;;;;4989278;28;20417;-66
2021/03/24 06:08:40;;;;;;;3.70;3.23;;;21.10;49.20;;;;;;4991828;28;20824;-67
2021/03/24 06:11:18;;;;;;;3.40;3.10;;;21.20;49.30;;;;;;4983632;28;20444;-66
2021/03/24 06:14:02;;;;;;;4.00;2.70;;;21.20;49.30;;;;;;4993368;28;20459;-66
2021/03/24 06:16:45;;;;;;;3.33;3.03;;;21.20;49.30;;;;;;4994471;28;20459;-67
2021/03/24 06:19:42;;;;;;;3.57;3.00;;;21.20;49.20;;;;;;5009414;28;20425;-67
2021/03/24 06:22:53;;;;;;;3.33;3.03;;;21.20;49.20;;;;;;4993166;28;20539;-67
2021/03/24 06:25:35;;;;;;;3.63;3.00;;;21.30;49.20;;;;;;4997621;28;20550;-65
2021/03/24 06:28:12;;;;;;;3.60;3.30;;;21.30;49.30;;;;;;4993433;28;20443;-68
2021/03/24 06:30:41;;;;;;;3.20;2.70;;;21.20;49.20;;;;;;4994091;28;20800;-67
2021/03/24 06:33:42;;;;;;;3.40;3.10;;;21.20;49.20;;;;;;4992745;28;20951;-67
2021/03/24 06:36:35;;;;;;;3.07;2.77;;;21.30;49.20;;;;;;4992351;28;20455;-67
2021/03/24 06:39:21;;;;;;;3.27;3.00;;;21.30;49.20;;;;;;4994049;28;20447;-66
2021/03/24 06:42:04;;;;;;;2.70;2.50;;;21.30;49.20;;;;;;4993540;28;20428;-67
2021/03/24 06:44:42;;;;;;;3.57;3.07;;;21.30;49.20;;;;;;4993956;28;20479;-67
2021/03/24 06:47:22;;;;;;;2.97;2.70;;;21.30;49.20;;;;;;4993725;28;20510;-67
2021/03/24 06:50:32;;;;;;;3.10;2.80;;;21.30;49.20;;;;;;4993545;28;20431;-68
2021/03/24 06:53:15;;;;;;;3.93;3.10;;;21.40;49.20;;;;;;4993555;28;20431;-68
2021/03/24 06:56:15;;;;;;;3.90;2.60;;;21.30;49.20;;;;;;4993747;28;20805;-67
2021/03/24 06:59:18;;;;;;;3.07;2.77;;;21.40;49.20;;;;;;4993640;28;20401;-66
2021/03/24 07:01:51;;;;;;;3.07;2.77;;;21.40;49.20;;;;;;4993670;28;20441;-65
2021/03/24 07:04:50;;;;;;;3.13;2.80;;;21.40;49.20;;;;;;4993568;28;20400;-67
2021/03/24 07:07:43;;;;;;;4.00;2.73;;;21.40;49.20;;;;;;4993524;28;20399;-67
2021/03/24 07:10:37;;;;;;;3.93;2.83;;;21.40;49.20;;;;;;4993515;28;20385;-67
2021/03/24 07:13:45;;;;;;;3.40;2.77;;;21.40;49.20;;;;;;4993559;28;20511;-67
2021/03/24 07:16:49;;;;;;;2.70;2.27;;;21.40;49.20;;;;;;4986313;28;20473;-67
2021/03/24 07:19:33;;;;;;;3.20;2.80;;;21.40;49.10;;;;;;4997472;28;20491;-66
2021/03/24 07:22:17;;;;;;;3.13;2.83;;;21.50;49.20;;;;;;4997087;28;20443;-67
2021/03/24 07:25:19;;;;;;;2.73;2.53;;;21.50;49.10;;;;;;4997006;28;20519;-66
2021/03/24 07:28:20;;;;;;;3.93;2.67;;;21.60;49.10;;;;;;5011193;28;20870;-67
2021/03/24 07:31:37;;;;;;;4.80;2.57;;;21.60;49.10;;;;;;4996078;28;20411;-66
2021/03/24 07:34:20;;;;;;;2.87;2.67;;;21.60;49.00;;;;;;4985378;28;21035;-66
2021/03/24 07:37:19;;;;;;;2.93;2.63;;;21.60;49.10;;;;;;4997452;28;20462;-66
2021/03/24 07:40:07;;;;;;;3.27;2.63;;;21.70;49.20;;;;;;4997461;28;20416;-67
2021/03/24 07:42:47;;;;;;;4.23;2.73;;;21.70;49.20;;;;;;4997053;28;20518;-66
2021/03/24 07:45:33;;;;;;;2.93;2.70;;;21.70;49.10;;;;;;4997080;28;20426;-66
2021/03/24 07:48:14;;;;;;;3.70;2.77;;;21.70;49.10;;;;;;4997010;28;20415;-65
2021/03/24 07:51:11;;;;;;;3.80;2.83;;;21.70;49.00;;;;;;4996816;28;20427;-67
2021/03/24 07:53:59;;;;;;;3.80;2.93;;;21.70;49.00;;;;;;4997089;28;21022;-67
2021/03/24 07:56:38;;;;;;;3.67;2.90;;;21.70;49.00;;;;;;4996668;28;21021;-66
2021/03/24 07:59:38;;;;;;;3.10;2.80;;;21.70;49.00;;;;;;4996826;28;20392;-66
2021/03/24 08:02:35;;;;;;;2.77;2.40;;;21.80;49.10;;;;;;4996698;28;20442;-66
2021/03/24 08:05:27;;;;;;;2.90;2.47;;;21.80;49.10;;;;;;4996772;28;20899;-67
2021/03/24 08:08:22;;;;;;;3.03;2.50;;;21.80;49.10;;;;;;4988528;28;20412;-67
2021/03/24 08:11:16;;;;;;;2.60;2.40;;;21.80;49.10;;;;;;4995415;28;20474;-67
2021/03/24 08:13:47;;;;;;;3.47;2.67;;;21.80;49.10;;;;;;4996544;28;20432;-66
2021/03/24 08:17:03;;;;;;;3.30;2.53;;;21.80;49.10;;;;;;4995164;28;20452;-66
2021/03/24 08:19:35;;;;;;;3.10;2.80;;;21.80;49.10;;;;;;4975013;28;20492;-67
2021/03/24 08:22:22;;;;;;;2.23;2.03;;;21.80;49.10;;;;;;4974841;28;20435;-66
2021/03/24 08:25:21;;;;;;;2.57;2.37;;;21.90;49.20;;;;;;4990655;28;20466;-66
2021/03/24 08:28:17;;;;;;;3.10;2.37;;;21.80;49.10;;;;;;4996279;28;20494;-66
2021/03/24 08:30:55;;;;;;;5.23;3.30;;;21.80;49.10;;;;;;4991926;28;20447;-66
2021/03/24 08:33:36;;;;;;;2.73;2.30;;;21.80;49.10;;;;;;4996244;28;20535;-66
2021/03/24 08:36:22;;;;;;;2.60;2.20;;;21.90;49.20;;;;;;4996085;28;20440;-66
2021/03/24 08:39:09;;;;;;;3.00;2.70;;;21.90;49.20;;;;;;4984859;28;20419;-65
2021/03/24 08:41:40;;;;;;;2.53;2.30;;;21.90;49.20;;;;;;4995964;28;20487;-65
2021/03/24 08:44:29;;;;;;;3.10;2.90;;;21.90;49.20;;;;;;4994731;28;20493;-65
2021/03/24 08:47:08;;;;;;;3.20;2.90;;;21.90;49.10;;;;;;4995923;28;20488;-67
2021/03/24 08:49:36;;;;;;;2.50;2.20;;;21.90;49.20;;;;;;4995947;28;20949;-67
2021/03/24 08:52:14;;;;;;;2.67;2.03;;;21.90;49.20;;;;;;4996133;28;20440;-66
2021/03/24 08:55:02;;;;;;;3.40;2.27;;;21.90;49.10;;;;;;4995841;28;20918;-67
2021/03/24 08:57:37;;;;;;;2.50;2.30;;;21.90;49.20;;;;;;4996171;28;20824;-66
2021/03/24 09:00:21;;;;;;;2.60;2.40;;;21.90;49.20;;;;;;4994495;28;20416;-67
2021/03/24 09:02:53;;;;;;;2.20;2.00;;;22.00;49.20;;;;;;4995564;28;20478;-66
2021/03/24 09:05:38;;;;;;;2.90;2.50;;;21.90;49.20;;;;;;4995659;28;20962;-65
2021/03/24 09:08:15;;;;;;;2.53;2.33;;;22.00;49.20;;;;;;4994589;28;20961;-66
2021/03/24 09:10:50;;;;;;;2.40;2.20;;;21.90;49.10;;;;;;4996437;28;20800;-67
2021/03/24 09:13:24;;;;;;;2.67;2.47;;;22.00;49.20;;;;;;4994088;28;20436;-66
2021/03/24 09:16:27;;;;;;;4.00;2.27;;;22.00;49.20;;;;;;4995613;28;20489;-65
2021/03/24 09:19:11;;;;;;;2.80;2.10;;;22.00;49.20;;;;;;4995611;28;20412;-67
2021/03/24 09:22:06;;;;;;;2.83;2.20;;;22.00;49.30;;;;;;4995284;28;20423;-67
2021/03/24 09:25:10;;;;;;;2.20;1.93;;;22.00;49.20;;;;;;4995903;28;20413;-66
2021/03/24 09:28:06;;;;;;;2.10;1.90;;;22.00;49.20;;;;;;4993663;28;20458;-66
2021/03/24 09:31:07;;;;;;;2.53;2.33;;;22.00;49.30;;;;;;4995075;28;20463;-67
2021/03/24 09:33:50;;;;;;;2.73;2.20;;;21.90;49.20;;;;;;4973438;28;20436;-67
2021/03/24 09:36:30;;;;;;;2.53;2.33;;;22.00;49.30;;;;;;4990186;28;20456;-65
2021/03/24 09:39:00;;;;;;;2.00;1.80;;;22.00;49.30;;;;;;4995218;28;20410;-65
2021/03/24 09:41:41;;;;;;;2.80;2.27;;;22.00;49.30;;;;;;4995055;28;20405;-66
2021/03/24 09:44:17;;;;;;;3.00;2.70;;;22.00;49.20;;;;;;4992980;28;20479;-66
2021/03/24 09:46:47;;;;;;;2.40;2.20;;;22.00;49.20;;;;;;4989213;28;20404;-66
2021/03/24 09:49:35;;;;;;;3.93;2.23;;;22.00;49.30;;;;;;4994453;28;20494;-65
2021/03/24 09:52:46;;;;;;;2.47;2.00;;;22.00;49.20;;;;;;4993525;28;20997;-66
2021/03/24 09:55:28;;;;;;;2.97;2.43;;;22.00;49.20;;;;;;4994431;28;20415;-66
2021/03/24 09:58:21;;;;;;;2.40;2.20;;;22.00;49.30;;;;;;4994428;28;20415;-66
2021/03/24 10:01:00;;;;;;;2.73;2.37;;;22.00;49.30;;;;;;4993776;28;20798;-67
2021/03/24 10:03:40;;;;;;;2.27;2.07;;;22.00;49.30;;;;;;4993797;28;20471;-65
2021/03/24 10:06:26;;;;;;;3.50;2.00;;;22.00;49.30;;;;;;4994530;28;20431;-67
2021/03/24 10:09:11;;;;;;;2.50;2.30;;;22.00;49.30;;;;;;4992962;28;20438;-66
2021/03/24 10:12:08;;;;;;;1.90;1.60;;;22.00;49.30;;;;;;4992869;28;20470;-66
2021/03/24 10:14:38;;;;;;;2.23;2.03;;;22.00;49.30;;;;;;4994273;28;20431;-67
2021/03/24 10:17:24;;;;;;;1.90;1.60;;;22.00;49.30;;;;;;4994209;28;20435;-67
2021/03/24 10:20:04;;;;;;;2.63;2.00;;;22.00;49.30;;;;;;4995046;28;20450;-67
2021/03/24 10:22:49;;;;;;;2.87;2.57;;;22.00;49.30;;;;;;4994285;28;20420;-66
2021/03/24 10:25:55;;;;;;;2.40;2.20;;;22.00;49.30;;;;;;4994664;28;20388;-67
2021/03/24 10:28:42;;;;;;;2.57;2.37;;;22.00;49.30;;;;;;5011585;28;20789;-67
2021/03/24 10:31:25;;;;;;;2.20;2.00;;;22.00;49.30;;;;;;4995381;28;20803;-67
2021/03/24 10:33:58;;;;;;;5.40;2.00;;;22.00;49.30;;;;;;4993942;28;20456;-66
2021/03/24 10:36:37;;;;;;;2.17;1.97;;;22.00;49.30;;;;;;4994431;28;20436;-66
2021/03/24 10:39:32;;;;;;;2.20;2.00;;;22.00;49.30;;;;;;4993928;28;20388;-65
2021/03/24 10:42:22;;;;;;;2.30;2.10;;;22.10;49.40;;;;;;4994164;28;20483;-66
2021/03/24 10:45:26;;;;;;;2.37;2.17;;;22.10;49.30;;;;;;4992639;28;20789;-67
2021/03/24 10:48:16;;;;;;;2.27;2.07;;;22.10;49.40;;;;;;4992584;28;20941;-67
2021/03/24 10:51:02;;;;;;;2.40;2.20;;;22.10;49.40;;;;;;4993647;28;20558;-66
2021/03/24 10:53:30;;;;;;;6.50;2.07;;;22.10;49.40;;;;;;4993357;28;20519;-66
2021/03/24 10:56:01;;;;;;;2.23;2.03;;;22.10;49.30;;;;;;4993633;28;20451;-66
2021/03/24 10:58:34;;;;;;;1.73;1.63;;;22.10;49.30;;;;;;4993985;28;20412;-67
2021/03/24 11:01:15;;;;;;;2.07;1.87;;;22.10;49.30;;;;;;4993615;28;20818;-66
2021/03/24 11:04:04;;;;;;;2.50;2.00;;;22.10;49.30;;;;;;4993629;28;20439;-66
2021/03/24 11:06:55;;;;;;;1.83;1.73;;;22.10;49.30;;;;;;4993932;28;20786;-66
2021/03/24 11:09:25;;;;;;;2.10;1.70;;;22.20;49.30;;;;;;4992153;28;20413;-66
2021/03/24 11:12:04;;;;;;;1.77;1.67;;;22.10;49.30;;;;;;4993495;28;20415;-66
2021/03/24 11:14:35;;;;;;;2.10;1.80;;;22.20;49.30;;;;;;5007656;28;20391;-66
2021/03/24 11:17:11;;;;;;;1.87;1.77;;;22.10;49.30;;;;;;4993633;28;20467;-66
2021/03/24 11:19:47;;;;;;;1.83;1.63;;;22.10;49.30;;;;;;4993585;28;20451;-66
2021/03/24 11:22:54;;;;;;;2.90;2.30;;;22.20;49.30;;;;;;4993441;28;20934;-67
2021/03/24 11:25:31;;;;;;;2.60;2.40;;;22.20;49.30;;;;;;4993711;28;20389;-66
2021/03/24 11:28:19;;;;;;;1.70;1.60;;;22.10;49.30;;;;;;4992745;28;20416;-66
2021/03/24 11:30:49;;;;;;;2.20;2.00;;;22.20;49.30;;;;;;4993449;28;20400;-66
2021/03/24 11:33:19;;;;;;;2.07;1.87;;;22.20;49.30;;;;;;4993304;28;20436;-67
2021/03/24 11:36:15;;;;;;;2.20;1.90;;;22.20;49.30;;;;;;4993378;28;20484;-67
2021/03/24 11:38:55;;;;;;;2.07;1.87;;;22.20;49.30;;;;;;4992048;28;20420;-66
2021/03/24 11:41:26;;;;;;;2.37;2.07;;;22.20;49.30;;;;;;4993560;28;20466;-67
2021/03/24 11:44:21;;;;;;;2.50;2.27;;;22.20;49.30;;;;;;4993515;28;20440;-66
2021/03/24 11:46:46;;;;;;;2.20;2.00;;;22.20;49.30;;;;;;4993588;28;20420;-67
2021/03/24 11:49:49;;;;;;;2.33;2.00;;;22.20;49.30;;;;;;4993361;28;21017;-66
2021/03/24 11:52:30;;;;;;;2.20;1.97;;;22.20;49.30;;;;;;4993180;28;20208;-66
2021/03/24 11:55:06;;;;;;;2.10;1.90;;;22.20;49.40;;;;;;4993194;28;20753;-66
2021/03/24 11:57:52;;;;;;;2.10;1.90;;;22.20;49.30;;;;;;4993403;28;20394;-67
2021/03/24 12:00:38;;;;;;;2.47;1.90;;;22.20;49.40;;;;;;4993739;28;20394;-65
2021/03/24 12:03:10;;;;;;;2.23;2.03;;;22.20;49.30;;;;;;4993093;28;20427;-65
2021/03/24 12:05:57;;;;;;;2.20;2.00;;;22.20;49.30;;;;;;4996411;28;20380;-64
2021/03/24 12:08:59;;;;;;;2.47;1.97;;;22.20;49.30;;;;;;4996676;28;20413;-65
2021/03/24 12:11:29;;;;;;;2.43;2.20;;;22.20;49.30;;;;;;4999307;28;20426;-66
2021/03/24 12:14:16;;;;;;;2.33;1.83;;;22.20;50.00;;;;;;4996834;28;20416;-66
2021/03/24 12:16:52;;;;;;;2.20;2.00;;;22.20;49.40;;;;;;4996712;28;20451;-66
2021/03/24 12:19:32;;;;;;;2.00;1.80;;;22.20;49.40;;;;;;4996499;28;20459;-67
2021/03/24 12:22:21;;;;;;;1.60;1.50;;;22.20;49.30;;;;;;4996444;28;20428;-66
2021/03/24 12:25:05;;;;;;;2.40;2.00;;;22.30;49.40;;;;;;4996643;28;20490;-66
2021/03/24 12:27:34;;;;;;;2.33;2.13;;;22.20;49.30;;;;;;4996701;28;20389;-66
2021/03/24 12:30:22;;;;;;;2.20;1.90;;;22.20;49.30;;;;;;4996441;28;20412;-67
2021/03/24 12:32:49;;;;;;;2.00;1.77;;;22.20;49.30;;;;;;4996221;28;20424;-66
2021/03/24 12:35:17;;;;;;;1.37;1.27;;;22.20;49.30;;;;;;4994829;28;20803;-65
2021/03/24 12:37:51;;;;;;;2.00;1.83;;;22.20;49.30;;;;;;4996198;28;20404;-66
2021/03/24 12:40:23;;;;;;;1.87;1.60;;;22.20;49.30;;;;;;4996236;28;20396;-66
2021/03/24 12:42:50;;;;;;;2.07;1.87;;;22.20;49.30;;;;;;4996081;28;20864;-67
2021/03/24 12:45:28;;;;;;;2.07;1.70;;;22.20;49.30;;;;;;4996040;28;20408;-67
2021/03/24 12:48:12;;;;;;;2.10;1.63;;;22.20;49.30;;;;;;4996052;28;20441;-66
2021/03/24 12:51:09;;;;;;;3.07;2.50;;;22.20;49.30;;;;;;4995938;28;20424;-66
2021/03/24 12:53:57;;;;;;;2.87;2.57;;;22.20;49.30;;;;;;4995787;28;20478;-67
2021/03/24 12:56:44;;;;;;;3.40;2.43;;;22.20;49.40;;;;;;4995913;28;20446;-65
2021/03/24 12:59:40;;;;;;;4.27;3.00;;;22.20;49.40;;;;;;4995786;28;20860;-66
2021/03/24 13:02:31;;;;;;;6.87;3.30;;;22.10;49.30;;;;;;4995887;28;20516;-67
2021/03/24 13:05:12;;;;;;;6.70;3.60;;;22.10;49.30;;;;;;4995789;28;20407;-66
2021/03/24 13:07:56;;;;;;;5.60;3.87;;;22.10;49.40;;;;;;4995653;28;20400;-66
2021/03/24 13:10:41;;;;;;;11.07;4.00;;;22.10;49.40;;;;;;4995617;28;20447;-65
2021/03/24 13:14:04;;;;;;;6.07;3.90;;;22.10;49.40;;;;;;4996038;28;20488;-64
2021/03/24 13:16:38;;;;;;;8.57;3.67;;;22.10;49.40;;;;;;5012865;28;20546;-65
2021/03/24 13:19:19;;;;;;;6.30;3.20;;;22.10;49.40;;;;;;5013355;28;20412;-67
2021/03/24 13:22:05;;;;;;;6.10;3.47;;;22.10;49.40;;;;;;5001952;28;20416;-67
2021/03/24 13:24:51;;;;;;;5.83;3.97;;;22.10;49.40;;;;;;4995373;28;20380;-67
2021/03/24 13:27:38;;;;;;;7.70;4.07;;;22.10;49.40;;;;;;4995304;28;20491;-66
2021/03/24 13:30:24;;;;;;;4.97;3.80;;;22.10;49.40;;;;;;4995229;28;20392;-67
2021/03/24 13:32:59;;;;;;;7.40;3.63;;;22.00;49.30;;;;;;4994074;28;20885;-65
2021/03/24 13:35:34;;;;;;;5.80;3.90;;;22.10;49.40;;;;;;4995318;28;20470;-66
2021/03/24 13:38:01;;;;;;;6.40;3.60;;;22.00;49.30;;;;;;4995125;28;20396;-66
2021/03/24 13:40:31;;;;;;;6.03;4.07;;;22.10;49.40;;;;;;4993752;28;20474;-67
2021/03/24 13:43:12;;;;;;;7.00;3.70;;;22.00;49.30;;;;;;4995157;28;20436;-65
2021/03/24 13:45:52;;;;;;;6.17;4.43;;;22.10;49.40;;;;;;4993656;28;20472;-66
2021/03/24 13:48:24;;;;;;;5.10;4.03;;;22.00;49.30;;;;;;4995326;28;20887;-67
2021/03/24 13:51:01;;;;;;;7.17;4.10;;;22.00;49.30;;;;;;4993440;28;20470;-67